createdAt,value
2023-03-17T00:01:05.849Z,56.55
2023-03-17T00:03:43.190Z,56.70
2023-03-17T00:06:27.981Z,56.40
2023-03-17T00:09:00.423Z,56.70
2023-03-17T00:11:32.933Z,56.17
2023-03-17T00:14:05.329Z,56.08
2023-03-17T00:16:42.354Z,56.21
2023-03-17T00:19:24.372Z,56.16
2023-03-17T00:22:00.021Z,56.22
2023-03-17T00:24:33.712Z,56.32
2023-03-17T00:27:12.629Z,56.40
2023-03-17T00:29:44.995Z,56.63
2023-03-17T00:32:20.484Z,56.10
2023-03-17T00:34:58.030Z,56.52
2023-03-17T00:37:33.702Z,56.44
2023-03-17T00:40:14.760Z,56.18
2023-03-17T00:42:47.992Z,55.89
2023-03-17T00:45:21.393Z,56.24
2023-03-17T00:47:56.167Z,56.57
2023-03-17T00:50:29.628Z,56.53
2023-03-17T00:53:02.309Z,56.43
2023-03-17T00:55:36.186Z,56.28
2023-03-17T00:58:27.199Z,56.02
2023-03-17T01:00:59.957Z,56.22
2023-03-17T01:03:33.172Z,56.37
2023-03-17T01:06:10.977Z,56.28
2023-03-17T01:08:44.852Z,56.25
2023-03-17T01:11:19.834Z,55.85
2023-03-17T01:13:53.852Z,56.17
2023-03-17T01:16:27.063Z,56.40
2023-03-17T01:18:59.423Z,56.15
2023-03-17T01:21:32.049Z,56.00
2023-03-17T01:24:04.952Z,56.37
2023-03-17T01:26:37.631Z,56.17
2023-03-17T01:29:10.278Z,56.02
2023-03-17T01:31:42.689Z,55.93
2023-03-17T01:34:15.873Z,56.01
2023-03-17T01:36:48.644Z,56.32
2023-03-17T01:39:21.055Z,55.90
2023-03-17T01:41:57.028Z,56.02
2023-03-17T01:44:33.940Z,56.50
2023-03-17T01:47:07.205Z,56.06
2023-03-17T01:49:39.751Z,56.07
2023-03-17T01:52:15.610Z,55.80
2023-03-17T01:54:56.805Z,56.49
2023-03-17T01:57:45.088Z,55.88
2023-03-17T02:00:21.417Z,56.34
2023-03-17T02:02:56.298Z,56.15
2023-03-17T02:05:31.241Z,56.00
2023-03-17T02:08:13.284Z,56.23
2023-03-17T02:10:49.493Z,55.68
2023-03-17T02:13:27.063Z,56.15
2023-03-17T02:15:59.639Z,55.92
2023-03-17T02:18:32.180Z,55.87
2023-03-17T02:22:04.802Z,55.80
2023-03-17T02:24:53.419Z,55.86
2023-03-17T02:27:40.886Z,55.72
2023-03-17T02:30:19.273Z,56.27
2023-03-17T02:32:52.090Z,56.02
2023-03-17T02:35:31.633Z,55.84
2023-03-17T02:38:04.358Z,56.01
2023-03-17T02:40:46.815Z,55.80
2023-03-17T02:43:20.752Z,55.92
2023-03-17T02:45:53.229Z,55.99
2023-03-17T02:48:25.853Z,55.94
2023-03-17T02:50:58.220Z,56.47
2023-03-17T02:53:31.279Z,56.41
2023-03-17T02:56:05.400Z,56.10
2023-03-17T02:58:38.725Z,55.81
2023-03-17T03:01:13.328Z,55.99
2023-03-17T03:03:47.458Z,55.86
2023-03-17T03:06:19.932Z,56.02
2023-03-17T03:08:54.404Z,56.02
2023-03-17T03:11:29.400Z,55.72
2023-03-17T03:14:02.390Z,55.94
2023-03-17T03:16:35.213Z,55.73
2023-03-17T03:19:08.463Z,55.57
2023-03-17T03:21:40.866Z,55.60
2023-03-17T03:24:13.359Z,56.25
2023-03-17T03:26:46.347Z,56.36
2023-03-17T03:29:18.695Z,55.84
2023-03-17T03:31:51.275Z,55.58
2023-03-17T03:34:23.752Z,56.04
2023-03-17T03:36:56.232Z,56.23
2023-03-17T03:39:28.770Z,55.85
2023-03-17T03:42:01.462Z,55.76
2023-03-17T03:44:33.790Z,55.61
2023-03-17T03:47:06.464Z,55.57
2023-03-17T03:49:39.010Z,55.73
2023-03-17T03:52:11.634Z,55.86
2023-03-17T03:54:44.117Z,56.03
2023-03-17T03:57:16.439Z,55.69
2023-03-17T03:59:49.005Z,55.97
2023-03-17T04:02:21.999Z,55.94
2023-03-17T04:04:54.494Z,55.80
2023-03-17T04:07:26.853Z,55.98
2023-03-17T04:09:59.947Z,56.39
2023-03-17T04:12:32.460Z,55.43
2023-03-17T04:15:06.016Z,55.83
2023-03-17T04:17:38.609Z,55.63
2023-03-17T04:20:13.201Z,55.55
2023-03-17T04:22:45.654Z,55.81
2023-03-17T04:25:19.447Z,55.81
2023-03-17T04:27:52.020Z,55.79
2023-03-17T04:30:25.025Z,56.15
2023-03-17T04:32:59.707Z,55.87
2023-03-17T04:35:32.167Z,55.80
2023-03-17T04:38:05.122Z,56.10
2023-03-17T04:40:37.622Z,56.06
2023-03-17T04:43:10.420Z,56.00
2023-03-17T04:45:42.831Z,55.95
2023-03-17T04:48:15.224Z,55.87
2023-03-17T04:50:48.037Z,55.59
2023-03-17T04:53:20.493Z,55.73
2023-03-17T04:55:52.977Z,56.20
2023-03-17T04:58:30.787Z,55.80
2023-03-17T05:01:03.940Z,56.20
2023-03-17T05:03:36.939Z,55.97
2023-03-17T05:06:09.321Z,55.91
2023-03-17T05:08:44.942Z,55.99
2023-03-17T05:11:17.497Z,55.79
2023-03-17T05:13:49.877Z,55.66
2023-03-17T05:16:22.435Z,56.12
2023-03-17T05:18:55.432Z,55.96
2023-03-17T05:21:27.905Z,56.08
2023-03-17T05:24:00.434Z,56.00
2023-03-17T05:26:33.169Z,56.14
2023-03-17T05:29:05.820Z,56.11
2023-03-17T05:31:38.580Z,55.70
2023-03-17T05:34:10.996Z,56.31
2023-03-17T05:36:43.826Z,56.09
2023-03-17T05:39:16.626Z,55.81
2023-03-17T05:41:50.435Z,56.11
2023-03-17T05:44:22.815Z,56.00
2023-03-17T05:46:55.973Z,55.89
2023-03-17T05:49:29.814Z,55.41
2023-03-17T05:52:02.168Z,56.00
2023-03-17T05:54:34.571Z,55.66
2023-03-17T05:57:07.825Z,55.56
2023-03-17T05:59:40.063Z,55.57
2023-03-17T06:02:13.184Z,55.59
2023-03-17T06:04:45.900Z,55.77
2023-03-17T06:07:18.237Z,55.67
2023-03-17T06:09:50.546Z,55.94
2023-03-17T06:12:22.937Z,55.62
2023-03-17T06:14:55.463Z,55.92
2023-03-17T06:17:27.826Z,55.70
2023-03-17T06:20:02.112Z,55.60
2023-03-17T06:22:37.415Z,56.08
2023-03-17T06:25:10.786Z,55.69
2023-03-17T06:27:44.348Z,55.91
2023-03-17T06:30:16.763Z,56.26
2023-03-17T06:32:49.321Z,55.71
2023-03-17T06:35:22.900Z,56.06
2023-03-17T06:37:56.170Z,55.69
2023-03-17T06:40:29.884Z,55.91
2023-03-17T06:43:03.151Z,56.08
2023-03-17T06:45:35.663Z,56.31
2023-03-17T06:48:07.971Z,56.39
2023-03-17T06:50:40.739Z,56.00
2023-03-17T06:53:14.124Z,56.12
2023-03-17T06:55:46.937Z,56.25
2023-03-17T06:58:20.924Z,56.20
2023-03-17T07:00:56.066Z,56.28
2023-03-17T07:03:28.463Z,55.94
2023-03-17T07:06:04.029Z,56.53
2023-03-17T07:08:36.655Z,56.08
2023-03-17T07:11:10.498Z,56.45
2023-03-17T07:13:43.234Z,56.34
2023-03-17T07:16:22.552Z,56.01
2023-03-17T07:18:55.650Z,56.90
2023-03-17T07:21:28.466Z,56.71
2023-03-17T07:24:01.669Z,56.33
2023-03-17T07:26:34.190Z,56.25
2023-03-17T07:29:06.559Z,56.62
2023-03-17T07:31:39.017Z,56.83
2023-03-17T07:34:12.039Z,56.47
2023-03-17T07:36:44.309Z,56.10
2023-03-17T07:39:16.909Z,56.32
2023-03-17T07:41:53.181Z,56.57
2023-03-17T07:44:26.103Z,56.92
2023-03-17T07:46:58.547Z,56.38
2023-03-17T07:49:41.119Z,56.87
2023-03-17T07:52:14.991Z,56.90
2023-03-17T07:54:48.104Z,56.23
2023-03-17T07:57:20.414Z,56.86
2023-03-17T07:59:52.834Z,56.79
2023-03-17T08:02:25.653Z,57.08
2023-03-17T08:04:58.003Z,56.87
2023-03-17T08:07:31.709Z,57.32
2023-03-17T08:10:07.745Z,56.77
2023-03-17T08:12:40.985Z,57.10
2023-03-17T08:15:13.926Z,56.75
2023-03-17T08:17:46.532Z,57.83
2023-03-17T08:20:19.275Z,57.37
2023-03-17T08:22:51.603Z,57.37
2023-03-17T08:25:24.820Z,57.41
2023-03-17T08:27:57.338Z,57.28
2023-03-17T08:30:33.290Z,57.11
2023-03-17T08:33:06.286Z,57.33
2023-03-17T08:35:41.621Z,57.05
2023-03-17T08:38:14.470Z,57.10
2023-03-17T08:40:46.986Z,56.79
2023-03-17T08:43:19.310Z,57.12
2023-03-17T08:45:52.003Z,57.55
2023-03-17T08:48:24.473Z,57.36
2023-03-17T08:50:57.283Z,57.48
2023-03-17T08:53:30.072Z,57.26
2023-03-17T08:56:04.709Z,56.87
2023-03-17T08:58:43.349Z,57.26
2023-03-17T09:01:21.136Z,57.08
2023-03-17T09:03:55.051Z,57.19
2023-03-17T09:06:27.961Z,57.78
2023-03-17T09:09:00.543Z,57.08
2023-03-17T09:11:35.121Z,57.57
2023-03-17T09:14:07.582Z,56.72
2023-03-17T09:16:40.226Z,57.18
2023-03-17T09:19:12.645Z,57.28
2023-03-17T09:21:45.247Z,56.55
2023-03-17T09:24:19.243Z,57.19
2023-03-17T09:26:51.914Z,57.11
2023-03-17T09:29:24.418Z,56.96
2023-03-17T09:31:57.146Z,57.31
2023-03-17T09:34:29.840Z,56.83
2023-03-17T09:37:02.414Z,57.17
2023-03-17T09:39:34.780Z,57.34
2023-03-17T09:42:08.173Z,56.84
2023-03-17T09:44:43.353Z,56.52
2023-03-17T09:47:21.702Z,56.96
2023-03-17T09:50:03.150Z,57.00
2023-03-17T09:52:36.400Z,57.02
2023-03-17T09:55:13.227Z,57.25
2023-03-17T09:57:46.545Z,56.75
2023-03-17T10:00:20.841Z,57.23
2023-03-17T10:02:54.405Z,56.83
2023-03-17T10:05:31.443Z,56.77
2023-03-17T10:08:32.229Z,57.04
2023-03-17T10:11:29.489Z,56.87
2023-03-17T10:14:40.384Z,56.63
2023-03-17T10:17:21.594Z,56.40
2023-03-17T10:20:26.458Z,57.11
2023-03-17T10:23:12.635Z,56.69
2023-03-17T10:25:45.316Z,57.18
2023-03-17T10:28:30.116Z,56.53
2023-03-17T10:31:21.472Z,56.63
2023-03-17T10:33:56.374Z,56.69
2023-03-17T10:36:38.248Z,56.75
2023-03-17T10:39:14.486Z,56.31
2023-03-17T10:41:55.840Z,56.59
2023-03-17T10:44:49.591Z,56.79
2023-03-17T10:47:39.317Z,57.15
2023-03-17T10:50:21.622Z,56.47
2023-03-17T10:53:07.808Z,56.48
2023-03-17T10:55:44.803Z,56.86
2023-03-17T10:58:30.569Z,56.58
2023-03-17T11:01:16.252Z,56.57
2023-03-17T11:03:49.504Z,56.68
2023-03-17T11:06:31.565Z,56.81
2023-03-17T11:09:10.142Z,56.71
2023-03-17T11:12:02.862Z,57.24
2023-03-17T11:14:35.661Z,57.19
2023-03-17T11:17:19.180Z,57.04
2023-03-17T11:20:16.927Z,56.79
2023-03-17T11:23:19.423Z,56.94
2023-03-17T11:26:05.878Z,56.73
2023-03-17T11:28:44.648Z,57.18
2023-03-17T11:31:29.844Z,56.88
2023-03-17T11:34:05.674Z,56.74
2023-03-17T11:36:46.266Z,57.11
2023-03-17T11:40:24.980Z,57.42
2023-03-17T11:43:05.957Z,57.56
2023-03-17T11:45:59.009Z,57.50
2023-03-17T11:48:32.598Z,58.03
2023-03-17T11:51:33.168Z,57.49
2023-03-17T11:54:30.632Z,57.67
2023-03-17T11:57:15.457Z,57.85
2023-03-17T11:59:54.631Z,58.36
2023-03-17T12:02:36.794Z,57.36
2023-03-17T12:05:27.948Z,57.71
2023-03-17T12:08:15.168Z,57.89
2023-03-17T12:10:56.614Z,57.80
2023-03-17T12:13:51.924Z,58.34
2023-03-17T12:16:32.123Z,57.46
2023-03-17T12:19:14.732Z,57.50
2023-03-17T12:21:53.181Z,58.09
2023-03-17T12:24:31.839Z,57.69
2023-03-17T12:27:27.412Z,57.38
2023-03-17T12:30:03.123Z,57.70
2023-03-17T12:32:55.129Z,57.70
2023-03-17T12:35:30.025Z,58.32
2023-03-17T12:38:31.352Z,57.86
2023-03-17T12:41:28.085Z,58.17
2023-03-17T12:44:39.886Z,57.79
2023-03-17T12:47:38.477Z,57.46
2023-03-17T12:50:25.663Z,57.75
2023-03-17T12:53:23.616Z,57.70
2023-03-17T12:56:29.671Z,57.90
2023-03-17T12:59:13.924Z,57.50
2023-03-17T13:01:58.554Z,58.02
2023-03-17T13:04:36.824Z,57.84
2023-03-17T13:07:24.175Z,57.75
2023-03-17T13:09:57.478Z,58.02
2023-03-17T13:12:44.080Z,57.27
2023-03-17T13:15:25.631Z,57.27
2023-03-17T13:18:21.263Z,57.64
2023-03-17T13:21:01.016Z,58.30
2023-03-17T13:23:47.618Z,57.95
2023-03-17T13:26:22.630Z,57.27
2023-03-17T13:28:54.987Z,57.87
2023-03-17T13:31:29.800Z,57.38
2023-03-17T13:34:16.609Z,57.51
2023-03-17T13:37:05.907Z,57.52
2023-03-17T13:40:24.968Z,57.37
2023-03-17T13:43:28.818Z,57.27
2023-03-17T13:46:32.191Z,57.40
2023-03-17T13:49:27.815Z,57.43
2023-03-17T13:52:17.697Z,57.29
2023-03-17T13:55:08.882Z,56.93
2023-03-17T13:57:41.453Z,57.97
2023-03-17T14:00:22.591Z,56.66
2023-03-17T14:03:04.297Z,57.56
2023-03-17T14:05:38.169Z,57.45
2023-03-17T14:08:27.571Z,57.34
2023-03-17T14:11:02.854Z,57.36
2023-03-17T14:14:29.641Z,57.30
2023-03-17T14:17:17.323Z,56.72
2023-03-17T14:20:20.651Z,57.43
2023-03-17T14:23:04.624Z,57.17
2023-03-17T14:25:40.500Z,56.76
2023-03-17T14:28:17.119Z,56.69
2023-03-17T14:30:52.800Z,57.09
2023-03-17T14:33:48.706Z,56.67
2023-03-17T14:36:29.030Z,56.66
2023-03-17T14:39:01.401Z,55.89
2023-03-17T14:41:35.423Z,55.75
2023-03-17T14:44:11.584Z,55.06
2023-03-17T14:46:45.305Z,54.41
2023-03-17T14:49:25.004Z,53.13
2023-03-17T14:51:58.669Z,51.94
2023-03-17T14:54:34.737Z,51.17
2023-03-17T14:57:16.200Z,51.37
2023-03-17T15:00:20.122Z,50.88
2023-03-17T15:03:06.180Z,51.50
2023-03-17T15:05:42.491Z,51.95
2023-03-17T15:08:41.047Z,51.61
2023-03-17T15:11:25.635Z,51.67
2023-03-17T15:14:19.959Z,51.90
2023-03-17T15:16:57.179Z,51.67
2023-03-17T15:20:00.859Z,51.37
2023-03-17T15:22:35.992Z,51.21
2023-03-17T15:25:32.069Z,50.98
2023-03-17T15:28:19.695Z,50.82
2023-03-17T15:30:57.870Z,51.03
2023-03-17T15:33:41.568Z,50.82
2023-03-17T15:36:32.331Z,51.33
2023-03-17T15:39:07.197Z,51.22
2023-03-17T15:41:41.207Z,51.34
2023-03-17T15:44:18.401Z,51.27
2023-03-17T15:46:52.200Z,51.29
2023-03-17T15:49:27.006Z,51.01
2023-03-17T15:51:59.875Z,50.87
2023-03-17T15:54:32.893Z,50.70
2023-03-17T15:57:06.862Z,50.74
2023-03-17T15:59:41.742Z,50.62
2023-03-17T16:02:39.676Z,50.77
2023-03-17T16:05:25.148Z,50.84
2023-03-17T16:08:00.524Z,50.88
2023-03-17T16:10:34.762Z,50.98
2023-03-17T16:13:08.491Z,50.84
2023-03-17T16:15:45.072Z,51.05
2023-03-17T16:18:36.211Z,51.03
2023-03-17T16:21:11.690Z,51.23
2023-03-17T16:23:46.477Z,51.58
2023-03-17T16:26:23.224Z,51.17
2023-03-17T16:28:57.695Z,51.26
2023-03-17T16:31:31.783Z,51.52
2023-03-17T16:34:17.517Z,51.32
2023-03-17T16:36:51.756Z,51.74
2023-03-17T16:39:24.871Z,52.09
2023-03-17T16:41:59.881Z,51.57
2023-03-17T16:44:36.346Z,52.30
2023-03-17T16:47:11.550Z,52.33
2023-03-17T16:49:44.053Z,52.42
2023-03-17T16:52:16.908Z,52.50
2023-03-17T16:54:50.314Z,52.36
2023-03-17T16:57:23.253Z,52.67
2023-03-17T16:59:57.732Z,52.64
2023-03-17T17:02:31.311Z,52.88
2023-03-17T17:05:12.983Z,53.03
2023-03-17T17:07:47.941Z,53.06
2023-03-17T17:10:22.279Z,52.75
2023-03-17T17:12:55.569Z,53.29
2023-03-17T17:15:30.735Z,52.64
2023-03-17T17:18:24.664Z,53.25
2023-03-17T17:20:57.097Z,53.19
2023-03-17T17:23:29.658Z,53.16
2023-03-17T17:26:02.271Z,53.27
2023-03-17T17:28:35.554Z,53.04
2023-03-17T17:31:08.964Z,53.22
2023-03-17T17:33:41.428Z,53.55
2023-03-17T17:36:16.736Z,53.07
2023-03-17T17:38:51.790Z,53.93
2023-03-17T17:41:24.404Z,53.75
2023-03-17T17:43:57.484Z,53.49
2023-03-17T17:46:29.870Z,53.36
2023-03-17T17:49:02.720Z,54.18
2023-03-17T17:51:35.281Z,54.25
2023-03-17T17:54:07.766Z,53.62
2023-03-17T17:56:46.706Z,53.74
2023-03-17T17:59:19.268Z,53.39
2023-03-17T18:01:51.675Z,53.80
2023-03-17T18:04:24.192Z,53.80
2023-03-17T18:06:56.853Z,54.42
2023-03-17T18:09:32.039Z,54.01
2023-03-17T18:12:04.954Z,54.25
2023-03-17T18:14:37.819Z,53.44
2023-03-17T18:17:11.217Z,53.95
2023-03-17T18:19:45.760Z,54.28
2023-03-17T18:22:18.196Z,54.16
2023-03-17T18:24:50.657Z,54.04
2023-03-17T18:27:23.185Z,54.38
2023-03-17T18:29:56.979Z,54.32
2023-03-17T18:32:30.003Z,54.00
2023-03-17T18:35:08.133Z,54.96
2023-03-17T18:37:41.253Z,54.69
2023-03-17T18:40:18.107Z,54.71
2023-03-17T18:42:52.166Z,54.22
2023-03-17T18:45:24.391Z,55.04
2023-03-17T18:47:56.781Z,55.05
2023-03-17T18:50:29.181Z,53.80
2023-03-17T18:53:03.266Z,54.43
2023-03-17T18:55:36.153Z,54.83
2023-03-17T18:58:08.800Z,54.36
2023-03-17T19:00:41.386Z,54.39
2023-03-17T19:03:14.033Z,54.29
2023-03-17T19:05:46.439Z,53.97
2023-03-17T19:08:19.838Z,54.66
2023-03-17T19:10:53.226Z,54.50
2023-03-17T19:13:25.652Z,54.85
2023-03-17T19:15:59.124Z,54.99
2023-03-17T19:18:31.902Z,54.54
2023-03-17T19:21:04.762Z,54.83
2023-03-17T19:23:39.360Z,55.24
2023-03-17T19:26:12.062Z,54.32
2023-03-17T19:28:45.445Z,54.95
2023-03-17T19:31:17.926Z,55.33
2023-03-17T19:33:51.242Z,54.91
2023-03-17T19:36:27.036Z,55.45
2023-03-17T19:38:59.674Z,55.21
2023-03-17T19:41:36.339Z,55.15
2023-03-17T19:44:08.814Z,55.33
2023-03-17T19:46:44.007Z,55.43
2023-03-17T19:49:17.376Z,55.24
2023-03-17T19:51:50.262Z,55.62
2023-03-17T19:54:23.485Z,55.43
2023-03-17T19:56:56.161Z,55.53
2023-03-17T19:59:30.323Z,54.95
2023-03-17T20:02:04.674Z,55.32
2023-03-17T20:04:37.658Z,55.37
2023-03-17T20:07:11.068Z,55.29
2023-03-17T20:09:44.684Z,55.68
2023-03-17T20:12:16.997Z,55.64
2023-03-17T20:14:51.734Z,55.80
2023-03-17T20:17:25.583Z,55.90
2023-03-17T20:19:58.156Z,55.58
2023-03-17T20:22:31.927Z,55.63
2023-03-17T20:25:05.872Z,55.83
2023-03-17T20:27:39.013Z,56.17
2023-03-17T20:30:12.480Z,55.31
2023-03-17T20:32:45.347Z,55.67
2023-03-17T20:35:18.981Z,55.82
2023-03-17T20:37:51.500Z,56.16
2023-03-17T20:40:25.892Z,55.68
2023-03-17T20:42:58.429Z,55.52
2023-03-17T20:45:31.271Z,55.45
2023-03-17T20:48:05.113Z,55.70
2023-03-17T20:50:39.079Z,55.64
2023-03-17T20:53:11.655Z,56.10
2023-03-17T20:55:45.329Z,56.18
2023-03-17T20:58:18.557Z,55.47
2023-03-17T21:00:54.909Z,55.71
2023-03-17T21:03:27.610Z,55.57
2023-03-17T21:06:00.487Z,56.13
2023-03-17T21:08:34.030Z,55.64
2023-03-17T21:11:08.347Z,55.81
2023-03-17T21:13:40.900Z,55.87
2023-03-17T21:16:28.173Z,56.05
2023-03-17T21:19:03.021Z,55.32
2023-03-17T21:21:36.622Z,55.76
2023-03-17T21:24:27.681Z,55.46
2023-03-17T21:27:03.952Z,56.29
2023-03-17T21:29:37.249Z,55.66
2023-03-17T21:32:09.805Z,56.04
2023-03-17T21:34:42.329Z,56.08
2023-03-17T21:37:18.360Z,55.74
2023-03-17T21:39:51.108Z,55.97
2023-03-17T21:42:24.791Z,55.69
2023-03-17T21:44:57.178Z,56.60
2023-03-17T21:47:30.111Z,56.85
2023-03-17T21:50:05.201Z,56.75
2023-03-17T21:52:38.033Z,57.10
2023-03-17T21:55:10.742Z,56.96
2023-03-17T21:57:43.257Z,57.16
2023-03-17T22:00:15.924Z,56.44
2023-03-17T22:02:48.572Z,56.31
2023-03-17T22:05:21.291Z,57.50
2023-03-17T22:07:53.891Z,56.97
2023-03-17T22:10:27.181Z,57.41
2023-03-17T22:12:59.667Z,57.32
2023-03-17T22:15:31.925Z,57.32
2023-03-17T22:18:05.172Z,57.56
2023-03-17T22:20:37.849Z,57.14
2023-03-17T22:23:10.161Z,56.93
2023-03-17T22:25:42.545Z,57.18
2023-03-17T22:28:15.069Z,57.37
2023-03-17T22:30:47.626Z,56.99
2023-03-17T22:33:20.065Z,57.82
2023-03-17T22:35:52.474Z,57.55
2023-03-17T22:38:24.983Z,57.25
2023-03-17T22:41:08.110Z,57.88
2023-03-17T22:43:41.742Z,57.02
2023-03-17T22:46:15.826Z,57.28
2023-03-17T22:48:48.997Z,57.49
2023-03-17T22:51:25.206Z,57.20
2023-03-17T22:53:57.975Z,57.32
2023-03-17T22:56:31.552Z,58.03
2023-03-17T22:59:04.426Z,57.30
2023-03-17T23:01:36.977Z,57.21
2023-03-17T23:04:09.360Z,57.68
2023-03-17T23:06:42.022Z,57.44
2023-03-17T23:09:14.998Z,57.39
2023-03-17T23:11:48.388Z,57.79
2023-03-17T23:14:20.822Z,57.24
2023-03-17T23:16:53.236Z,57.73
2023-03-17T23:19:26.108Z,57.66
2023-03-17T23:21:58.599Z,57.81
2023-03-17T23:24:31.026Z,57.81
2023-03-17T23:27:03.974Z,57.52
2023-03-17T23:29:39.563Z,57.66
2023-03-17T23:32:12.642Z,57.81
2023-03-17T23:34:45.036Z,57.65
2023-03-17T23:37:17.387Z,57.59
2023-03-17T23:39:49.757Z,57.96
2023-03-17T23:42:22.595Z,57.66
2023-03-17T23:44:57.377Z,57.78
2023-03-17T23:47:29.929Z,57.59
2023-03-17T23:50:03.967Z,57.75
2023-03-17T23:52:36.847Z,57.89
2023-03-17T23:55:11.888Z,57.96
2023-03-17T23:57:44.438Z,58.05
